sensor_id;sensor_type;location;lat;lon;timestamp;pressure;altitude;pressure_sealevel;temperature;humidity
10940;BME280;5522;42.696;23.494;2023-01-13T00:02:14;53908.09;;;-139.68;100.00
10940;BME280;5522;42.696;23.494;2023-01-13T00:04:40;53879.94;;;-139.68;100.00
10940;BME280;5522;42.696;23.494;2023-01-13T00:07:07;53883.97;;;-139.68;100.00
10940;BME280;5522;42.696;23.494;2023-01-13T00:09:36;53936.22;;;-139.68;100.00
10940;BME280;5522;42.696;23.494;2023-01-13T00:12:03;53871.91;;;-139.68;100.00
10940;BME280;5522;42.696;23.494;2023-01-13T00:14:32;53888.00;;;-139.68;100.00
10940;BME280;5522;42.696;23.494;2023-01-13T00:16:59;53910.09;;;-139.68;100.00
10940;BME280;5522;42.696;23.494;2023-01-13T00:19:26;53879.94;;;-139.68;100.00
10940;BME280;5522;42.696;23.494;2023-01-13T00:21:53;53930.22;;;-139.68;100.00
10940;BME280;5522;42.696;23.494;2023-01-13T00:24:20;53888.00;;;-139.68;100.00
10940;BME280;5522;42.696;23.494;2023-01-13T00:26:48;53871.91;;;-139.68;100.00
10940;BME280;5522;42.696;23.494;2023-01-13T00:29:17;53898.03;;;-139.68;100.00
10940;BME280;5522;42.696;23.494;2023-01-13T00:31:44;53912.13;;;-139.68;100.00
10940;BME280;5522;42.696;23.494;2023-01-13T00:34:11;53910.09;;;-139.68;100.00
10940;BME280;5522;42.696;23.494;2023-01-13T00:36:37;53904.06;;;-139.68;100.00
10940;BME280;5522;42.696;23.494;2023-01-13T00:39:04;53904.06;;;-139.68;100.00
10940;BME280;5522;42.696;23.494;2023-01-13T00:41:31;53861.84;;;-139.68;100.00
10940;BME280;5522;42.696;23.494;2023-01-13T00:44:20;53883.97;;;-139.68;100.00
10940;BME280;5522;42.696;23.494;2023-01-13T00:46:45;53898.03;;;-139.68;100.00
10940;BME280;5522;42.696;23.494;2023-01-13T00:49:12;53888.00;;;-139.68;100.00
10940;BME280;5522;42.696;23.494;2023-01-13T00:51:39;53930.22;;;-139.68;100.00
10940;BME280;5522;42.696;23.494;2023-01-13T00:54:06;53908.09;;;-139.68;100.00
10940;BME280;5522;42.696;23.494;2023-01-13T00:56:33;53916.13;;;-139.68;100.00
10940;BME280;5522;42.696;23.494;2023-01-13T00:59:00;53914.13;;;-139.68;100.00
10940;BME280;5522;42.696;23.494;2023-01-13T01:06:40;53843.75;;;-139.68;100.00
10940;BME280;5522;42.696;23.494;2023-01-13T01:09:07;53888.00;;;-139.68;100.00
10940;BME280;5522;42.696;23.494;2023-01-13T01:11:34;53896.03;;;-139.68;100.00
10940;BME280;5522;42.696;23.494;2023-01-13T01:14:02;53881.97;;;-139.68;100.00
10940;BME280;5522;42.696;23.494;2023-01-13T01:16:30;53912.13;;;-139.68;100.00
10940;BME280;5522;42.696;23.494;2023-01-13T01:18:58;53904.06;;;-139.68;100.00
10940;BME280;5522;42.696;23.494;2023-01-13T01:21:27;53916.13;;;-139.68;100.00
10940;BME280;5522;42.696;23.494;2023-01-13T01:23:58;53879.94;;;-139.68;100.00
10940;BME280;5522;42.696;23.494;2023-01-13T01:26:29;53906.06;;;-139.68;100.00
10940;BME280;5522;42.696;23.494;2023-01-13T01:28:56;53904.06;;;-139.68;100.00
10940;BME280;5522;42.696;23.494;2023-01-13T01:31:26;53883.97;;;-139.68;100.00
10940;BME280;5522;42.696;23.494;2023-01-13T01:33:53;53879.94;;;-139.68;100.00
10940;BME280;5522;42.696;23.494;2023-01-13T01:36:22;53896.03;;;-139.68;100.00
10940;BME280;5522;42.696;23.494;2023-01-13T01:38:51;53898.03;;;-139.68;100.00
10940;BME280;5522;42.696;23.494;2023-01-13T01:41:22;53906.06;;;-139.68;100.00
10940;BME280;5522;42.696;23.494;2023-01-13T01:43:51;53888.00;;;-139.68;100.00
10940;BME280;5522;42.696;23.494;2023-01-13T01:46:24;53912.13;;;-139.68;100.00
10940;BME280;5522;42.696;23.494;2023-01-13T01:48:52;53904.06;;;-139.68;100.00
10940;BME280;5522;42.696;23.494;2023-01-13T01:51:20;53944.28;;;-139.68;100.00
10940;BME280;5522;42.696;23.494;2023-01-13T01:53:47;53875.94;;;-139.68;100.00
10940;BME280;5522;42.696;23.494;2023-01-13T01:56:16;53879.94;;;-139.68;100.00
10940;BME280;5522;42.696;23.494;2023-01-13T01:58:47;53896.03;;;-139.68;100.00
10940;BME280;5522;42.696;23.494;2023-01-13T02:01:16;53885.97;;;-139.68;100.00
10940;BME280;5522;42.696;23.494;2023-01-13T02:03:47;53871.91;;;-139.68;100.00
10940;BME280;5522;42.696;23.494;2023-01-13T02:06:18;53863.88;;;-139.68;100.00
10940;BME280;5522;42.696;23.494;2023-01-13T02:08:45;53898.03;;;-139.68;100.00
10940;BME280;5522;42.696;23.494;2023-01-13T02:11:29;53904.06;;;-139.68;100.00
10940;BME280;5522;42.696;23.494;2023-01-13T02:14:15;53881.97;;;-139.68;100.00
10940;BME280;5522;42.696;23.494;2023-01-13T02:16:50;53898.03;;;-139.68;100.00
10940;BME280;5522;42.696;23.494;2023-01-13T02:19:47;53910.09;;;-139.68;100.00
10940;BME280;5522;42.696;23.494;2023-01-13T02:22:37;53908.09;;;-139.68;100.00
10940;BME280;5522;42.696;23.494;2023-01-13T02:25:35;53896.03;;;-139.68;100.00
10940;BME280;5522;42.696;23.494;2023-01-13T02:28:21;53883.97;;;-139.68;100.00
10940;BME280;5522;42.696;23.494;2023-01-13T02:30:56;53900.06;;;-139.68;100.00
10940;BME280;5522;42.696;23.494;2023-01-13T02:34:00;53877.94;;;-139.68;100.00
10940;BME280;5522;42.696;23.494;2023-01-13T02:36:36;53859.84;;;-139.68;100.00
10940;BME280;5522;42.696;23.494;2023-01-13T02:39:10;53912.13;;;-139.68;100.00
10940;BME280;5522;42.696;23.494;2023-01-13T02:41:41;53888.00;;;-139.68;100.00
10940;BME280;5522;42.696;23.494;2023-01-13T02:44:30;53879.94;;;-139.68;100.00
10940;BME280;5522;42.696;23.494;2023-01-13T02:47:03;53890.00;;;-139.68;100.00
10940;BME280;5522;42.696;23.494;2023-01-13T02:49:34;53859.84;;;-139.68;100.00
10940;BME280;5522;42.696;23.494;2023-01-13T02:52:09;53898.03;;;-139.68;100.00
10940;BME280;5522;42.696;23.494;2023-01-13T02:54:39;53855.81;;;-139.68;100.00
10940;BME280;5522;42.696;23.494;2023-01-13T02:57:10;53920.16;;;-139.68;100.00
10940;BME280;5522;42.696;23.494;2023-01-13T02:59:46;53890.00;;;-139.68;100.00
10940;BME280;5522;42.696;23.494;2023-01-13T03:02:17;53912.13;;;-139.68;100.00
10940;BME280;5522;42.696;23.494;2023-01-13T03:04:52;53896.03;;;-139.68;100.00
10940;BME280;5522;42.696;23.494;2023-01-13T03:10:40;53851.81;;;-139.68;100.00
10940;BME280;5522;42.696;23.494;2023-01-13T03:13:18;53920.16;;;-139.68;100.00
10940;BME280;5522;42.696;23.494;2023-01-13T03:15:53;53847.78;;;-139.68;100.00
10940;BME280;5522;42.696;23.494;2023-01-13T03:18:33;53896.03;;;-139.68;100.00
10940;BME280;5522;42.696;23.494;2023-01-13T03:21:06;53871.91;;;-139.68;100.00
10940;BME280;5522;42.696;23.494;2023-01-13T03:23:40;53869.91;;;-139.68;100.00
10940;BME280;5522;42.696;23.494;2023-01-13T03:26:15;53910.09;;;-139.68;100.00
10940;BME280;5522;42.696;23.494;2023-01-13T03:28:47;53914.13;;;-139.68;100.00
10940;BME280;5522;42.696;23.494;2023-01-13T03:31:18;53875.94;;;-139.68;100.00
10940;BME280;5522;42.696;23.494;2023-01-13T03:33:53;53924.16;;;-139.68;100.00
10940;BME280;5522;42.696;23.494;2023-01-13T03:36:24;53924.16;;;-139.68;100.00
10940;BME280;5522;42.696;23.494;2023-01-13T03:38:56;53896.03;;;-139.68;100.00
10940;BME280;5522;42.696;23.494;2023-01-13T03:41:30;53924.16;;;-139.68;100.00
10940;BME280;5522;42.696;23.494;2023-01-13T03:44:04;53879.94;;;-139.68;100.00
10940;BME280;5522;42.696;23.494;2023-01-13T03:46:54;53912.13;;;-139.68;100.00
10940;BME280;5522;42.696;23.494;2023-01-13T03:49:28;53900.06;;;-139.68;100.00
10940;BME280;5522;42.696;23.494;2023-01-13T03:52:01;53898.03;;;-139.68;100.00
10940;BME280;5522;42.696;23.494;2023-01-13T03:54:31;53871.91;;;-139.68;100.00
10940;BME280;5522;42.696;23.494;2023-01-13T03:57:02;53896.03;;;-139.68;100.00
10940;BME280;5522;42.696;23.494;2023-01-13T03:59:33;53871.91;;;-139.68;100.00
10940;BME280;5522;42.696;23.494;2023-01-13T04:02:06;53896.03;;;-139.68;100.00
10940;BME280;5522;42.696;23.494;2023-01-13T04:04:38;53879.94;;;-139.68;100.00
10940;BME280;5522;42.696;23.494;2023-01-13T04:07:13;53902.06;;;-139.68;100.00
10940;BME280;5522;42.696;23.494;2023-01-13T04:09:48;53869.91;;;-139.68;100.00
10940;BME280;5522;42.696;23.494;2023-01-13T04:12:19;53892.00;;;-139.68;100.00
10940;BME280;5522;42.696;23.494;2023-01-13T04:14:49;53932.22;;;-139.68;100.00
10940;BME280;5522;42.696;23.494;2023-01-13T04:17:17;53902.06;;;-139.68;100.00
10940;BME280;5522;42.696;23.494;2023-01-13T04:19:46;53896.03;;;-139.68;100.00
10940;BME280;5522;42.696;23.494;2023-01-13T04:22:13;53892.00;;;-139.68;100.00
10940;BME280;5522;42.696;23.494;2023-01-13T04:24:39;53885.97;;;-139.68;100.00
10940;BME280;5522;42.696;23.494;2023-01-13T04:27:06;53883.97;;;-139.68;100.00
10940;BME280;5522;42.696;23.494;2023-01-13T04:29:33;53924.16;;;-139.68;100.00
10940;BME280;5522;42.696;23.494;2023-01-13T04:32:00;53916.13;;;-139.68;100.00
10940;BME280;5522;42.696;23.494;2023-01-13T04:34:27;53908.09;;;-139.68;100.00
10940;BME280;5522;42.696;23.494;2023-01-13T04:36:55;53908.09;;;-139.68;100.00
10940;BME280;5522;42.696;23.494;2023-01-13T04:39:22;53871.91;;;-139.68;100.00
10940;BME280;5522;42.696;23.494;2023-01-13T04:41:49;53900.06;;;-139.68;100.00
10940;BME280;5522;42.696;23.494;2023-01-13T04:44:27;53851.81;;;-139.68;100.00
10940;BME280;5522;42.696;23.494;2023-01-13T04:46:55;53881.97;;;-139.68;100.00
10940;BME280;5522;42.696;23.494;2023-01-13T04:49:23;53879.94;;;-139.68;100.00
10940;BME280;5522;42.696;23.494;2023-01-13T04:51:49;53881.97;;;-139.68;100.00
10940;BME280;5522;42.696;23.494;2023-01-13T04:54:18;53892.00;;;-139.68;100.00
10940;BME280;5522;42.696;23.494;2023-01-13T04:56:44;53865.88;;;-139.68;100.00
10940;BME280;5522;42.696;23.494;2023-01-13T04:59:12;53944.28;;;-139.68;100.00
10940;BME280;5522;42.696;23.494;2023-01-13T05:01:39;53924.16;;;-139.68;100.00
10940;BME280;5522;42.696;23.494;2023-01-13T05:04:07;53912.13;;;-139.68;100.00
10940;BME280;5522;42.696;23.494;2023-01-13T05:06:34;53867.88;;;-139.68;100.00
10940;BME280;5522;42.696;23.494;2023-01-13T05:09:01;53879.94;;;-139.68;100.00
10940;BME280;5522;42.696;23.494;2023-01-13T05:11:29;53888.00;;;-139.68;100.00
10940;BME280;5522;42.696;23.494;2023-01-13T05:14:13;53847.78;;;-139.68;100.00
10940;BME280;5522;42.696;23.494;2023-01-13T05:16:57;53883.97;;;-139.68;100.00
10940;BME280;5522;42.696;23.494;2023-01-13T05:19:29;53883.97;;;-139.68;100.00
10940;BME280;5522;42.696;23.494;2023-01-13T05:21:56;53885.97;;;-139.68;100.00
10940;BME280;5522;42.696;23.494;2023-01-13T05:24:49;53912.13;;;-139.68;100.00
10940;BME280;5522;42.696;23.494;2023-01-13T05:27:34;53883.97;;;-139.68;100.00
10940;BME280;5522;42.696;23.494;2023-01-13T05:30:01;53894.03;;;-139.68;100.00
10940;BME280;5522;42.696;23.494;2023-01-13T05:32:28;53871.91;;;-139.68;100.00
10940;BME280;5522;42.696;23.494;2023-01-13T05:34:55;53922.16;;;-139.68;100.00
10940;BME280;5522;42.696;23.494;2023-01-13T05:37:23;53900.06;;;-139.68;100.00
10940;BME280;5522;42.696;23.494;2023-01-13T05:39:51;53920.16;;;-139.68;100.00
10940;BME280;5522;42.696;23.494;2023-01-13T05:42:36;53890.00;;;-139.68;100.00
10940;BME280;5522;42.696;23.494;2023-01-13T05:45:21;53888.00;;;-139.68;100.00
10940;BME280;5522;42.696;23.494;2023-01-13T05:47:48;53892.00;;;-139.68;100.00
10940;BME280;5522;42.696;23.494;2023-01-13T05:50:15;53883.97;;;-139.68;100.00
10940;BME280;5522;42.696;23.494;2023-01-13T05:52:42;53900.06;;;-139.68;100.00
10940;BME280;5522;42.696;23.494;2023-01-13T05:55:10;53918.16;;;-139.68;100.00
10940;BME280;5522;42.696;23.494;2023-01-13T05:57:38;53902.06;;;-139.68;100.00
10940;BME280;5522;42.696;23.494;2023-01-13T06:00:06;53896.03;;;-139.68;100.00
10940;BME280;5522;42.696;23.494;2023-01-13T06:02:33;53883.97;;;-139.68;100.00
10940;BME280;5522;42.696;23.494;2023-01-13T06:05:00;53888.00;;;-139.68;100.00
10940;BME280;5522;42.696;23.494;2023-01-13T06:07:27;53879.94;;;-139.68;100.00
10940;BME280;5522;42.696;23.494;2023-01-13T06:09:54;53914.13;;;-139.68;100.00
10940;BME280;5522;42.696;23.494;2023-01-13T06:12:20;53922.16;;;-139.68;100.00
10940;BME280;5522;42.696;23.494;2023-01-13T06:14:49;53877.94;;;-139.68;100.00
10940;BME280;5522;42.696;23.494;2023-01-13T06:17:16;53932.22;;;-139.68;100.00
10940;BME280;5522;42.696;23.494;2023-01-13T06:19:43;53908.09;;;-139.68;100.00
10940;BME280;5522;42.696;23.494;2023-01-13T06:22:12;53928.19;;;-139.68;100.00
10940;BME280;5522;42.696;23.494;2023-01-13T06:24:41;53928.19;;;-139.68;100.00
10940;BME280;5522;42.696;23.494;2023-01-13T06:27:08;53885.97;;;-139.68;100.00
10940;BME280;5522;42.696;23.494;2023-01-13T06:29:35;53928.19;;;-139.68;100.00
10940;BME280;5522;42.696;23.494;2023-01-13T06:32:05;53892.00;;;-139.68;100.00
10940;BME280;5522;42.696;23.494;2023-01-13T06:34:33;53912.13;;;-139.68;100.00
10940;BME280;5522;42.696;23.494;2023-01-13T06:37:01;53920.16;;;-139.68;100.00
10940;BME280;5522;42.696;23.494;2023-01-13T06:39:30;53896.03;;;-139.68;100.00
10940;BME280;5522;42.696;23.494;2023-01-13T06:41:57;53912.13;;;-139.68;100.00
10940;BME280;5522;42.696;23.494;2023-01-13T06:44:43;53920.16;;;-139.68;100.00
10940;BME280;5522;42.696;23.494;2023-01-13T06:47:11;53914.13;;;-139.68;100.00
10940;BME280;5522;42.696;23.494;2023-01-13T06:49:38;53922.16;;;-139.68;100.00
10940;BME280;5522;42.696;23.494;2023-01-13T06:52:05;53890.00;;;-139.68;100.00
10940;BME280;5522;42.696;23.494;2023-01-13T06:54:32;53879.94;;;-139.68;100.00
10940;BME280;5522;42.696;23.494;2023-01-13T06:57:00;53875.94;;;-139.68;100.00
10940;BME280;5522;42.696;23.494;2023-01-13T06:59:27;53847.78;;;-139.68;100.00
10940;BME280;5522;42.696;23.494;2023-01-13T07:01:53;53920.16;;;-139.68;100.00
10940;BME280;5522;42.696;23.494;2023-01-13T07:04:22;53938.25;;;-139.68;100.00
10940;BME280;5522;42.696;23.494;2023-01-13T07:06:49;53835.72;;;-139.68;100.00
10940;BME280;5522;42.696;23.494;2023-01-13T07:09:16;53920.16;;;-139.68;100.00
10940;BME280;5522;42.696;23.494;2023-01-13T07:11:42;53920.16;;;-139.68;100.00
10940;BME280;5522;42.696;23.494;2023-01-13T07:14:09;53920.16;;;-139.68;100.00
10940;BME280;5522;42.696;23.494;2023-01-13T07:16:54;53924.16;;;-139.68;100.00
10940;BME280;5522;42.696;23.494;2023-01-13T07:19:22;53936.22;;;-139.68;100.00
10940;BME280;5522;42.696;23.494;2023-01-13T07:21:50;53849.78;;;-139.68;100.00
10940;BME280;5522;42.696;23.494;2023-01-13T07:24:17;53916.13;;;-139.68;100.00
10940;BME280;5522;42.696;23.494;2023-01-13T07:26:44;53908.09;;;-139.68;100.00
10940;BME280;5522;42.696;23.494;2023-01-13T07:29:11;53908.09;;;-139.68;100.00
10940;BME280;5522;42.696;23.494;2023-01-13T07:31:38;53908.09;;;-139.68;100.00
10940;BME280;5522;42.696;23.494;2023-01-13T07:34:05;53952.31;;;-139.68;100.00
10940;BME280;5522;42.696;23.494;2023-01-13T07:36:34;53888.00;;;-139.68;100.00
10940;BME280;5522;42.696;23.494;2023-01-13T07:39:01;53902.06;;;-139.68;100.00
10940;BME280;5522;42.696;23.494;2023-01-13T07:41:28;53944.28;;;-139.68;100.00
10940;BME280;5522;42.696;23.494;2023-01-13T07:44:12;53910.09;;;-139.68;100.00
10940;BME280;5522;42.696;23.494;2023-01-13T07:46:39;53904.06;;;-139.68;100.00
10940;BME280;5522;42.696;23.494;2023-01-13T07:49:07;53898.03;;;-139.68;100.00
10940;BME280;5522;42.696;23.494;2023-01-13T07:51:36;53888.00;;;-139.68;100.00
10940;BME280;5522;42.696;23.494;2023-01-13T07:54:04;53900.06;;;-139.68;100.00
10940;BME280;5522;42.696;23.494;2023-01-13T07:56:31;53920.16;;;-139.68;100.00
10940;BME280;5522;42.696;23.494;2023-01-13T07:58:58;53938.25;;;-139.68;97.34
10940;BME280;5522;42.696;23.494;2023-01-13T08:01:25;53928.19;;;-139.68;92.28
10940;BME280;5522;42.696;23.494;2023-01-13T08:03:53;53922.16;;;-139.68;90.24
10940;BME280;5522;42.696;23.494;2023-01-13T08:06:20;53916.13;;;-139.68;83.82
10940;BME280;5522;42.696;23.494;2023-01-13T08:08:49;53954.31;;;-139.68;84.07
10940;BME280;5522;42.696;23.494;2023-01-13T08:11:16;53946.28;;;-139.68;82.46
10940;BME280;5522;42.696;23.494;2023-01-13T08:13:43;53964.38;;;-139.68;84.09
10940;BME280;5522;42.696;23.494;2023-01-13T08:16:12;53928.19;;;-139.68;81.47
10940;BME280;5522;42.696;23.494;2023-01-13T08:18:40;53892.00;;;-139.68;82.66
10940;BME280;5522;42.696;23.494;2023-01-13T08:21:08;53924.16;;;-139.68;77.72
10940;BME280;5522;42.696;23.494;2023-01-13T08:23:36;53948.31;;;-139.68;70.25
10940;BME280;5522;42.696;23.494;2023-01-13T08:26:05;53938.25;;;-139.68;62.76
10940;BME280;5522;42.696;23.494;2023-01-13T08:28:32;53930.22;;;-139.68;58.76
10940;BME280;5522;42.696;23.494;2023-01-13T08:31:00;53946.28;;;-139.68;59.07
10940;BME280;5522;42.696;23.494;2023-01-13T08:33:28;53972.41;;;-139.68;49.07
10940;BME280;5522;42.696;23.494;2023-01-13T08:35:55;53996.53;;;-139.68;43.94
10940;BME280;5522;42.696;23.494;2023-01-13T08:38:25;54044.78;;;-139.68;41.57
10940;BME280;5522;42.696;23.494;2023-01-13T08:40:52;53984.47;;;-139.68;39.15
10940;BME280;5522;42.696;23.494;2023-01-13T08:43:20;54026.69;;;-139.68;40.24
10940;BME280;5522;42.696;23.494;2023-01-13T08:45:55;54020.66;;;-139.68;40.61
10940;BME280;5522;42.696;23.494;2023-01-13T08:48:21;54004.59;;;-139.68;39.16
10940;BME280;5522;42.696;23.494;2023-01-13T08:50:48;53996.53;;;-139.68;38.49
10940;BME280;5522;42.696;23.494;2023-01-13T08:53:15;53980.47;;;-139.68;37.40
10940;BME280;5522;42.696;23.494;2023-01-13T08:55:42;53986.50;;;-139.68;35.76
10940;BME280;5522;42.696;23.494;2023-01-13T08:58:09;54016.66;;;-139.68;34.80
10940;BME280;5522;42.696;23.494;2023-01-13T09:00:37;53986.50;;;-139.68;35.53
10940;BME280;5522;42.696;23.494;2023-01-13T09:03:04;54000.56;;;-139.68;36.63
10940;BME280;5522;42.696;23.494;2023-01-13T09:05:31;54036.75;;;-139.68;36.18
10940;BME280;5522;42.696;23.494;2023-01-13T09:07:58;53956.34;;;-139.68;39.29
10940;BME280;5522;42.696;23.494;2023-01-13T09:10:25;54010.63;;;-139.68;42.48
10940;BME280;5522;42.696;23.494;2023-01-13T09:12:52;53946.28;;;-139.68;42.23
10940;BME280;5522;42.696;23.494;2023-01-13T09:15:38;53996.53;;;-139.68;38.46
10940;BME280;5522;42.696;23.494;2023-01-13T09:18:05;54034.75;;;-139.68;37.10
10940;BME280;5522;42.696;23.494;2023-01-13T09:20:32;54010.63;;;-139.68;39.73
10940;BME280;5522;42.696;23.494;2023-01-13T09:22:59;54008.63;;;-139.68;40.53
10940;BME280;5522;42.696;23.494;2023-01-13T09:25:26;53988.50;;;-139.68;42.53
10940;BME280;5522;42.696;23.494;2023-01-13T09:27:52;53962.38;;;-139.68;40.91
10940;BME280;5522;42.696;23.494;2023-01-13T09:30:20;53988.50;;;-139.68;39.01
10940;BME280;5522;42.696;23.494;2023-01-13T09:32:48;54012.63;;;-139.68;39.55
10940;BME280;5522;42.696;23.494;2023-01-13T09:35:35;54000.56;;;-139.68;42.28
10940;BME280;5522;42.696;23.494;2023-01-13T09:38:01;54032.72;;;-139.68;44.31
10940;BME280;5522;42.696;23.494;2023-01-13T09:40:28;54008.63;;;-139.68;46.74
10940;BME280;5522;42.696;23.494;2023-01-13T09:42:58;54006.59;;;-139.68;50.95
10940;BME280;5522;42.696;23.494;2023-01-13T09:45:48;53964.38;;;-139.68;59.24
10940;BME280;5522;42.696;23.494;2023-01-13T09:48:22;54008.63;;;-139.68;66.96
10940;BME280;5522;42.696;23.494;2023-01-13T09:51:01;53978.47;;;-139.68;72.38
10940;BME280;5522;42.696;23.494;2023-01-13T09:53:35;53986.50;;;-139.68;78.59
10940;BME280;5522;42.696;23.494;2023-01-13T09:56:03;53952.31;;;-139.68;81.33
10940;BME280;5522;42.696;23.494;2023-01-13T09:58:31;53984.47;;;-139.68;84.52
10940;BME280;5522;42.696;23.494;2023-01-13T10:01:11;53926.19;;;-139.68;85.88
10940;BME280;5522;42.696;23.494;2023-01-13T10:03:41;53980.47;;;-139.68;91.05
10940;BME280;5522;42.696;23.494;2023-01-13T10:06:12;53980.47;;;-139.68;92.54
10940;BME280;5522;42.696;23.494;2023-01-13T10:08:42;53946.28;;;-139.68;93.68
10940;BME280;5522;42.696;23.494;2023-01-13T10:11:13;53954.31;;;-139.68;91.89
10940;BME280;5522;42.696;23.494;2023-01-13T10:14:00;53994.53;;;-139.68;90.91
10940;BME280;5522;42.696;23.494;2023-01-13T10:16:33;53992.53;;;-139.68;91.05
10940;BME280;5522;42.696;23.494;2023-01-13T10:19:16;53998.56;;;-139.68;92.16
10940;BME280;5522;42.696;23.494;2023-01-13T10:22:23;53968.41;;;-139.68;89.75
10940;BME280;5522;42.696;23.494;2023-01-13T10:25:21;53978.47;;;-139.68;89.80
10940;BME280;5522;42.696;23.494;2023-01-13T10:27:53;53964.38;;;-139.68;92.99
10940;BME280;5522;42.696;23.494;2023-01-13T10:30:23;53982.47;;;-139.68;93.33
10940;BME280;5522;42.696;23.494;2023-01-13T10:32:54;53952.31;;;-139.68;94.36
10940;BME280;5522;42.696;23.494;2023-01-13T10:35:50;53988.50;;;-139.68;96.32
10940;BME280;5522;42.696;23.494;2023-01-13T10:38:20;53960.38;;;-139.68;95.62
10940;BME280;5522;42.696;23.494;2023-01-13T10:40:49;53984.47;;;-139.68;95.76
10940;BME280;5522;42.696;23.494;2023-01-13T10:43:16;53996.53;;;-139.68;96.89
10940;BME280;5522;42.696;23.494;2023-01-13T10:45:51;53948.31;;;-139.68;97.47
10940;BME280;5522;42.696;23.494;2023-01-13T10:48:21;53948.31;;;-139.68;99.07
10940;BME280;5522;42.696;23.494;2023-01-13T10:50:48;53958.34;;;-139.68;100.00
10940;BME280;5522;42.696;23.494;2023-01-13T10:53:18;53984.47;;;-139.68;100.00
10940;BME280;5522;42.696;23.494;2023-01-13T10:55:58;53942.25;;;-139.68;100.00
10940;BME280;5522;42.696;23.494;2023-01-13T10:58:25;53956.34;;;-139.68;99.31
10940;BME280;5522;42.696;23.494;2023-01-13T11:01:01;53936.22;;;-139.68;99.02
10940;BME280;5522;42.696;23.494;2023-01-13T11:03:36;53976.44;;;-139.68;98.84
10940;BME280;5522;42.696;23.494;2023-01-13T11:06:06;53966.38;;;-139.68;98.38
10940;BME280;5522;42.696;23.494;2023-01-13T11:08:43;53962.38;;;-139.68;96.59
10940;BME280;5522;42.696;23.494;2023-01-13T11:11:36;53988.50;;;-139.68;95.16
10940;BME280;5522;42.696;23.494;2023-01-13T11:14:09;53972.41;;;-139.68;96.26
10940;BME280;5522;42.696;23.494;2023-01-13T11:17:13;53984.47;;;-139.68;94.24
10940;BME280;5522;42.696;23.494;2023-01-13T11:19:46;53954.31;;;-139.68;94.57
10940;BME280;5522;42.696;23.494;2023-01-13T11:22:19;53982.47;;;-139.68;92.42
10940;BME280;5522;42.696;23.494;2023-01-13T11:24:53;53980.47;;;-139.68;88.08
10940;BME280;5522;42.696;23.494;2023-01-13T11:27:28;53966.38;;;-139.68;87.13
10940;BME280;5522;42.696;23.494;2023-01-13T11:30:04;53986.50;;;-139.68;87.15
10940;BME280;5522;42.696;23.494;2023-01-13T11:32:39;54008.63;;;-139.68;86.01
10940;BME280;5522;42.696;23.494;2023-01-13T11:35:15;53958.34;;;-139.68;79.19
10940;BME280;5522;42.696;23.494;2023-01-13T11:37:48;53980.47;;;-139.68;81.87
10940;BME280;5522;42.696;23.494;2023-01-13T11:40:24;53972.41;;;-139.68;79.09
10940;BME280;5522;42.696;23.494;2023-01-13T11:42:58;53986.50;;;-139.68;71.35
10940;BME280;5522;42.696;23.494;2023-01-13T11:45:34;53966.38;;;-139.68;71.45
10940;BME280;5522;42.696;23.494;2023-01-13T11:48:03;53950.31;;;-139.68;74.08
10940;BME280;5522;42.696;23.494;2023-01-13T11:50:33;53940.25;;;-139.68;73.84
10940;BME280;5522;42.696;23.494;2023-01-13T11:53:23;53966.38;;;-139.68;68.00
10940;BME280;5522;42.696;23.494;2023-01-13T11:56:09;53964.38;;;-139.68;73.26
10940;BME280;5522;42.696;23.494;2023-01-13T11:59:05;54008.63;;;-139.68;71.17
10940;BME280;5522;42.696;23.494;2023-01-13T12:01:54;53964.38;;;-139.68;73.25
10940;BME280;5522;42.696;23.494;2023-01-13T12:04:28;53960.38;;;-139.68;72.40
10940;BME280;5522;42.696;23.494;2023-01-13T12:07:05;53992.53;;;-139.68;73.68
10940;BME280;5522;42.696;23.494;2023-01-13T12:09:47;53950.31;;;-139.68;71.99
10940;BME280;5522;42.696;23.494;2023-01-13T12:12:31;53956.34;;;-139.68;74.70
10940;BME280;5522;42.696;23.494;2023-01-13T12:15:39;53936.22;;;-139.68;75.06
10940;BME280;5522;42.696;23.494;2023-01-13T12:18:29;53944.28;;;-139.68;76.63
10940;BME280;5522;42.696;23.494;2023-01-13T12:21:12;53968.41;;;-139.68;79.56
10940;BME280;5522;42.696;23.494;2023-01-13T12:23:47;53960.38;;;-139.68;79.86
10940;BME280;5522;42.696;23.494;2023-01-13T12:26:17;53960.38;;;-139.68;79.35
10940;BME280;5522;42.696;23.494;2023-01-13T12:28:49;53968.41;;;-139.68;81.19
10940;BME280;5522;42.696;23.494;2023-01-13T12:31:19;53986.50;;;-139.68;81.14
10940;BME280;5522;42.696;23.494;2023-01-13T12:33:59;53964.38;;;-139.68;83.86
10940;BME280;5522;42.696;23.494;2023-01-13T12:36:35;53956.34;;;-139.68;88.90
10940;BME280;5522;42.696;23.494;2023-01-13T12:39:11;53968.41;;;-139.68;90.80
10940;BME280;5522;42.696;23.494;2023-01-13T12:41:46;53966.38;;;-139.68;90.97
10940;BME280;5522;42.696;23.494;2023-01-13T12:44:35;53960.38;;;-139.68;91.43
10940;BME280;5522;42.696;23.494;2023-01-13T12:47:02;53916.13;;;-139.68;91.39
10940;BME280;5522;42.696;23.494;2023-01-13T12:49:30;53956.34;;;-139.68;92.14
10940;BME280;5522;42.696;23.494;2023-01-13T12:52:10;53938.25;;;-139.68;91.66
10940;BME280;5522;42.696;23.494;2023-01-13T12:58:01;53942.25;;;-139.68;91.67
10940;BME280;5522;42.696;23.494;2023-01-13T13:00:36;53966.38;;;-139.68;91.89
10940;BME280;5522;42.696;23.494;2023-01-13T13:03:32;53964.38;;;-139.68;92.60
10940;BME280;5522;42.696;23.494;2023-01-13T13:06:09;54024.69;;;-139.68;93.56
10940;BME280;5522;42.696;23.494;2023-01-13T13:11:37;53956.34;;;-139.68;95.37
10940;BME280;5522;42.696;23.494;2023-01-13T13:17:59;53952.31;;;-139.68;97.11